sensor_id;sensor_type;location;lat;lon;timestamp;temperature;humidity
24232;DHT22;12364;47.810;8.810;2023-09-30T04:32:30;19.70;94.50
24232;DHT22;12364;47.810;8.810;2023-09-30T04:34:57;19.70;94.60
24232;DHT22;12364;47.810;8.810;2023-09-30T04:37:24;19.70;94.40
24232;DHT22;12364;47.810;8.810;2023-09-30T04:39:51;19.60;94.40
24232;DHT22;12364;47.810;8.810;2023-09-30T04:42:19;19.60;94.50
24232;DHT22;12364;47.810;8.810;2023-09-30T04:44:47;19.50;94.60
24232;DHT22;12364;47.810;8.810;2023-09-30T04:47:14;19.70;94.60
24232;DHT22;12364;47.810;8.810;2023-09-30T04:49:41;19.50;94.50
24232;DHT22;12364;47.810;8.810;2023-09-30T04:52:10;19.50;94.60
24232;DHT22;12364;47.810;8.810;2023-09-30T04:54:38;19.50;94.60
24232;DHT22;12364;47.810;8.810;2023-09-30T04:57:05;19.50;94.60
24232;DHT22;12364;47.810;8.810;2023-09-30T04:59:33;19.50;94.70
24232;DHT22;12364;47.810;8.810;2023-09-30T05:02:01;19.50;94.60
24232;DHT22;12364;47.810;8.810;2023-09-30T05:04:28;19.40;94.70
24232;DHT22;12364;47.810;8.810;2023-09-30T05:06:56;19.40;94.80
24232;DHT22;12364;47.810;8.810;2023-09-30T05:09:23;19.30;94.70
24232;DHT22;12364;47.810;8.810;2023-09-30T05:11:52;19.40;94.80
24232;DHT22;12364;47.810;8.810;2023-09-30T05:14:20;19.30;94.80
24232;DHT22;12364;47.810;8.810;2023-09-30T05:16:47;19.40;94.80
24232;DHT22;12364;47.810;8.810;2023-09-30T05:19:15;19.30;94.80
24232;DHT22;12364;47.810;8.810;2023-09-30T05:21:42;19.30;94.90
24232;DHT22;12364;47.810;8.810;2023-09-30T05:24:11;19.30;95.00
24232;DHT22;12364;47.810;8.810;2023-09-30T05:26:38;19.30;95.00
24232;DHT22;12364;47.810;8.810;2023-09-30T05:29:05;19.30;94.90
24232;DHT22;12364;47.810;8.810;2023-09-30T05:31:34;19.40;95.00
24232;DHT22;12364;47.810;8.810;2023-09-30T05:34:01;19.40;95.00
24232;DHT22;12364;47.810;8.810;2023-09-30T05:36:28;19.50;94.90
24232;DHT22;12364;47.810;8.810;2023-09-30T05:38:56;19.50;94.90
24232;DHT22;12364;47.810;8.810;2023-09-30T05:41:24;19.60;94.80
24232;DHT22;12364;47.810;8.810;2023-09-30T05:43:51;19.60;94.80
24232;DHT22;12364;47.810;8.810;2023-09-30T05:46:22;19.70;94.80
24232;DHT22;12364;47.810;8.810;2023-09-30T05:48:49;19.70;94.80
24232;DHT22;12364;47.810;8.810;2023-09-30T05:51:17;19.80;94.80
24232;DHT22;12364;47.810;8.810;2023-09-30T05:53:45;19.70;94.70
24232;DHT22;12364;47.810;8.810;2023-09-30T05:56:14;19.70;94.80
24232;DHT22;12364;47.810;8.810;2023-09-30T05:58:42;19.70;94.90
24232;DHT22;12364;47.810;8.810;2023-09-30T06:01:09;19.70;94.80
24232;DHT22;12364;47.810;8.810;2023-09-30T06:03:39;19.70;94.80
24232;DHT22;12364;47.810;8.810;2023-09-30T06:06:13;19.80;94.80
24232;DHT22;12364;47.810;8.810;2023-09-30T06:08:40;19.80;94.70
24232;DHT22;12364;47.810;8.810;2023-09-30T06:11:07;19.80;94.80
24232;DHT22;12364;47.810;8.810;2023-09-30T06:13:42;19.80;94.90
24232;DHT22;12364;47.810;8.810;2023-09-30T06:16:09;19.80;94.90
24232;DHT22;12364;47.810;8.810;2023-09-30T06:18:38;19.80;94.90
24232;DHT22;12364;47.810;8.810;2023-09-30T06:21:05;19.80;94.80
24232;DHT22;12364;47.810;8.810;2023-09-30T06:23:33;19.80;94.80
24232;DHT22;12364;47.810;8.810;2023-09-30T06:26:00;19.80;94.80
24232;DHT22;12364;47.810;8.810;2023-09-30T06:28:29;19.80;94.80
24232;DHT22;12364;47.810;8.810;2023-09-30T06:30:58;19.80;94.80
24232;DHT22;12364;47.810;8.810;2023-09-30T06:33:25;19.80;94.80
24232;DHT22;12364;47.810;8.810;2023-09-30T06:35:52;19.80;94.90
24232;DHT22;12364;47.810;8.810;2023-09-30T06:38:19;19.80;94.80
24232;DHT22;12364;47.810;8.810;2023-09-30T06:40:46;19.90;94.80
24232;DHT22;12364;47.810;8.810;2023-09-30T06:43:14;20.10;94.90
24232;DHT22;12364;47.810;8.810;2023-09-30T06:45:45;19.90;94.70
24232;DHT22;12364;47.810;8.810;2023-09-30T06:48:14;20.00;94.80
24232;DHT22;12364;47.810;8.810;2023-09-30T06:50:48;20.00;94.70
24232;DHT22;12364;47.810;8.810;2023-09-30T06:53:16;20.00;94.90
24232;DHT22;12364;47.810;8.810;2023-09-30T06:55:44;20.00;95.30
24232;DHT22;12364;47.810;8.810;2023-09-30T06:58:11;20.00;95.10
24232;DHT22;12364;47.810;8.810;2023-09-30T07:00:38;20.00;95.00
24232;DHT22;12364;47.810;8.810;2023-09-30T07:03:07;20.00;95.30
24232;DHT22;12364;47.810;8.810;2023-09-30T07:05:36;20.00;95.40
24232;DHT22;12364;47.810;8.810;2023-09-30T07:08:03;19.90;95.50
24232;DHT22;12364;47.810;8.810;2023-09-30T07:10:30;19.90;95.40
24232;DHT22;12364;47.810;8.810;2023-09-30T07:12:58;19.90;95.30
24232;DHT22;12364;47.810;8.810;2023-09-30T07:15:25;19.90;95.20
24232;DHT22;12364;47.810;8.810;2023-09-30T07:17:52;19.90;95.10
24232;DHT22;12364;47.810;8.810;2023-09-30T07:20:19;20.00;95.10
24232;DHT22;12364;47.810;8.810;2023-09-30T07:22:47;20.00;95.00
24232;DHT22;12364;47.810;8.810;2023-09-30T07:25:34;20.00;95.00
24232;DHT22;12364;47.810;8.810;2023-09-30T07:28:01;20.00;95.10
24232;DHT22;12364;47.810;8.810;2023-09-30T07:30:28;20.10;95.10
24232;DHT22;12364;47.810;8.810;2023-09-30T07:32:55;20.10;95.10
24232;DHT22;12364;47.810;8.810;2023-09-30T07:35:23;20.10;95.10
24232;DHT22;12364;47.810;8.810;2023-09-30T07:37:50;20.10;95.00
24232;DHT22;12364;47.810;8.810;2023-09-30T07:40:19;20.10;95.00
24232;DHT22;12364;47.810;8.810;2023-09-30T07:42:48;20.20;95.00
24232;DHT22;12364;47.810;8.810;2023-09-30T07:45:15;20.20;94.90
24232;DHT22;12364;47.810;8.810;2023-09-30T07:47:44;20.30;95.00
24232;DHT22;12364;47.810;8.810;2023-09-30T07:50:13;20.30;95.00
24232;DHT22;12364;47.810;8.810;2023-09-30T07:52:40;20.40;95.00
24232;DHT22;12364;47.810;8.810;2023-09-30T07:55:09;20.40;94.90
24232;DHT22;12364;47.810;8.810;2023-09-30T07:57:36;20.40;94.70
24232;DHT22;12364;47.810;8.810;2023-09-30T08:00:04;20.40;94.70
24232;DHT22;12364;47.810;8.810;2023-09-30T08:02:36;20.50;94.80
24232;DHT22;12364;47.810;8.810;2023-09-30T08:05:05;20.50;95.00
24232;DHT22;12364;47.810;8.810;2023-09-30T08:07:33;20.60;95.10
24232;DHT22;12364;47.810;8.810;2023-09-30T08:10:01;20.60;95.10
24232;DHT22;12364;47.810;8.810;2023-09-30T08:12:31;20.60;95.30
24232;DHT22;12364;47.810;8.810;2023-09-30T08:14:59;20.70;95.50
24232;DHT22;12364;47.810;8.810;2023-09-30T08:17:26;20.70;95.60
24232;DHT22;12364;47.810;8.810;2023-09-30T08:19:53;20.80;95.60
24232;DHT22;12364;47.810;8.810;2023-09-30T08:22:20;20.80;95.70
24232;DHT22;12364;47.810;8.810;2023-09-30T08:24:48;20.80;95.50
24232;DHT22;12364;47.810;8.810;2023-09-30T08:27:15;20.90;95.50
24232;DHT22;12364;47.810;8.810;2023-09-30T08:29:42;20.90;95.30
24232;DHT22;12364;47.810;8.810;2023-09-30T08:32:09;21.00;95.40
24232;DHT22;12364;47.810;8.810;2023-09-30T08:34:36;21.00;95.30
24232;DHT22;12364;47.810;8.810;2023-09-30T08:37:04;21.00;94.90
24232;DHT22;12364;47.810;8.810;2023-09-30T08:39:31;21.00;95.10
24232;DHT22;12364;47.810;8.810;2023-09-30T08:41:58;21.10;94.90
24232;DHT22;12364;47.810;8.810;2023-09-30T08:44:28;21.10;95.10
24232;DHT22;12364;47.810;8.810;2023-09-30T08:46:56;21.10;95.40
24232;DHT22;12364;47.810;8.810;2023-09-30T08:49:23;21.10;95.10
24232;DHT22;12364;47.810;8.810;2023-09-30T08:51:51;21.20;95.00
24232;DHT22;12364;47.810;8.810;2023-09-30T08:54:18;21.20;94.80
24232;DHT22;12364;47.810;8.810;2023-09-30T08:56:47;21.30;94.80
24232;DHT22;12364;47.810;8.810;2023-09-30T08:59:15;21.30;94.80
24232;DHT22;12364;47.810;8.810;2023-09-30T09:01:42;21.30;94.80
24232;DHT22;12364;47.810;8.810;2023-09-30T09:04:10;21.30;95.00
24232;DHT22;12364;47.810;8.810;2023-09-30T09:06:37;21.40;94.80
24232;DHT22;12364;47.810;8.810;2023-09-30T09:09:17;21.40;94.80
24232;DHT22;12364;47.810;8.810;2023-09-30T09:11:45;21.40;94.70
24232;DHT22;12364;47.810;8.810;2023-09-30T09:14:12;21.50;94.60
24232;DHT22;12364;47.810;8.810;2023-09-30T09:16:54;21.50;94.60
24232;DHT22;12364;47.810;8.810;2023-09-30T09:19:22;21.50;94.70
24232;DHT22;12364;47.810;8.810;2023-09-30T09:24:37;21.60;94.30
24232;DHT22;12364;47.810;8.810;2023-09-30T09:27:14;21.60;94.30
24232;DHT22;12364;47.810;8.810;2023-09-30T09:29:46;21.60;93.90
24232;DHT22;12364;47.810;8.810;2023-09-30T09:32:16;21.70;94.10
24232;DHT22;12364;47.810;8.810;2023-09-30T09:34:44;21.70;94.00
24232;DHT22;12364;47.810;8.810;2023-09-30T09:39:56;21.80;93.60
24232;DHT22;12364;47.810;8.810;2023-09-30T09:42:28;21.80;93.60
24232;DHT22;12364;47.810;8.810;2023-09-30T09:44:56;21.80;93.40
24232;DHT22;12364;47.810;8.810;2023-09-30T09:47:23;21.80;93.30
24232;DHT22;12364;47.810;8.810;2023-09-30T09:49:51;21.90;93.00
24232;DHT22;12364;47.810;8.810;2023-09-30T09:52:20;21.90;92.50
24232;DHT22;12364;47.810;8.810;2023-09-30T09:54:47;21.90;91.80
24232;DHT22;12364;47.810;8.810;2023-09-30T09:57:15;21.90;91.80
24232;DHT22;12364;47.810;8.810;2023-09-30T09:59:43;22.00;92.70
24232;DHT22;12364;47.810;8.810;2023-09-30T10:02:14;22.10;92.90
24232;DHT22;12364;47.810;8.810;2023-09-30T10:04:42;22.00;92.80
24232;DHT22;12364;47.810;8.810;2023-09-30T10:07:10;22.10;92.50
24232;DHT22;12364;47.810;8.810;2023-09-30T10:09:41;22.10;91.90
24232;DHT22;12364;47.810;8.810;2023-09-30T10:12:10;22.10;91.80
24232;DHT22;12364;47.810;8.810;2023-09-30T10:14:38;22.10;92.00
24232;DHT22;12364;47.810;8.810;2023-09-30T10:17:05;22.20;92.40
24232;DHT22;12364;47.810;8.810;2023-09-30T10:19:32;22.20;91.70
24232;DHT22;12364;47.810;8.810;2023-09-30T10:24:55;22.30;91.60
24232;DHT22;12364;47.810;8.810;2023-09-30T10:30:05;22.30;91.00
24232;DHT22;12364;47.810;8.810;2023-09-30T10:35:15;22.40;90.70
24232;DHT22;12364;47.810;8.810;2023-09-30T10:37:44;22.40;90.80
24232;DHT22;12364;47.810;8.810;2023-09-30T10:40:26;22.40;90.70
24232;DHT22;12364;47.810;8.810;2023-09-30T10:42:54;22.40;91.00
24232;DHT22;12364;47.810;8.810;2023-09-30T10:51:12;22.60;91.80
24232;DHT22;12364;47.810;8.810;2023-09-30T10:53:41;22.60;92.00
24232;DHT22;12364;47.810;8.810;2023-09-30T10:56:08;22.70;91.80
24232;DHT22;12364;47.810;8.810;2023-09-30T10:58:38;22.70;91.30
24232;DHT22;12364;47.810;8.810;2023-09-30T11:01:05;22.60;91.20
24232;DHT22;12364;47.810;8.810;2023-09-30T11:03:33;22.60;91.40
24232;DHT22;12364;47.810;8.810;2023-09-30T11:06:00;22.70;91.70
24232;DHT22;12364;47.810;8.810;2023-09-30T11:08:39;22.70;91.30
24232;DHT22;12364;47.810;8.810;2023-09-30T11:11:07;22.60;90.90
24232;DHT22;12364;47.810;8.810;2023-09-30T11:13:34;22.60;91.10
24232;DHT22;12364;47.810;8.810;2023-09-30T11:16:05;22.60;90.80
24232;DHT22;12364;47.810;8.810;2023-09-30T11:18:33;22.70;91.30
24232;DHT22;12364;47.810;8.810;2023-09-30T11:23:33;22.70;91.90
24232;DHT22;12364;47.810;8.810;2023-09-30T11:26:00;22.70;91.50
24232;DHT22;12364;47.810;8.810;2023-09-30T11:28:35;22.80;91.10
24232;DHT22;12364;47.810;8.810;2023-09-30T11:31:02;22.80;91.30
24232;DHT22;12364;47.810;8.810;2023-09-30T11:33:30;22.90;91.30
24232;DHT22;12364;47.810;8.810;2023-09-30T11:35:58;22.90;91.20
24232;DHT22;12364;47.810;8.810;2023-09-30T11:38:28;22.90;91.30
24232;DHT22;12364;47.810;8.810;2023-09-30T11:41:01;23.00;91.50
24232;DHT22;12364;47.810;8.810;2023-09-30T11:43:30;23.00;91.40
24232;DHT22;12364;47.810;8.810;2023-09-30T11:46:06;23.20;91.50
24232;DHT22;12364;47.810;8.810;2023-09-30T11:48:36;23.10;91.30
24232;DHT22;12364;47.810;8.810;2023-09-30T11:51:04;23.10;91.30
24232;DHT22;12364;47.810;8.810;2023-09-30T11:53:31;23.20;91.40
24232;DHT22;12364;47.810;8.810;2023-09-30T11:55:59;23.20;91.70
24232;DHT22;12364;47.810;8.810;2023-09-30T11:58:26;23.20;91.20
24232;DHT22;12364;47.810;8.810;2023-09-30T12:00:54;23.30;91.70
24232;DHT22;12364;47.810;8.810;2023-09-30T12:03:21;23.20;91.70
24232;DHT22;12364;47.810;8.810;2023-09-30T12:05:48;23.30;91.70
24232;DHT22;12364;47.810;8.810;2023-09-30T12:08:15;23.30;91.50
24232;DHT22;12364;47.810;8.810;2023-09-30T12:10:42;23.30;91.10
24232;DHT22;12364;47.810;8.810;2023-09-30T12:13:10;23.30;91.60
24232;DHT22;12364;47.810;8.810;2023-09-30T12:15:38;23.30;91.20
24232;DHT22;12364;47.810;8.810;2023-09-30T12:18:05;23.30;91.10
24232;DHT22;12364;47.810;8.810;2023-09-30T12:20:34;23.30;91.30
24232;DHT22;12364;47.810;8.810;2023-09-30T12:23:01;23.30;91.10
24232;DHT22;12364;47.810;8.810;2023-09-30T12:25:28;23.40;91.20
24232;DHT22;12364;47.810;8.810;2023-09-30T12:27:56;23.40;91.30
24232;DHT22;12364;47.810;8.810;2023-09-30T12:30:23;23.40;91.00
24232;DHT22;12364;47.810;8.810;2023-09-30T12:32:50;23.40;91.10
24232;DHT22;12364;47.810;8.810;2023-09-30T12:35:17;23.40;91.00
24232;DHT22;12364;47.810;8.810;2023-09-30T12:37:44;23.40;91.10
24232;DHT22;12364;47.810;8.810;2023-09-30T12:40:12;23.40;91.10
24232;DHT22;12364;47.810;8.810;2023-09-30T12:42:43;23.40;91.30
24232;DHT22;12364;47.810;8.810;2023-09-30T12:45:11;23.50;91.20
24232;DHT22;12364;47.810;8.810;2023-09-30T12:47:40;23.50;91.30
24232;DHT22;12364;47.810;8.810;2023-09-30T12:50:07;23.50;90.90
24232;DHT22;12364;47.810;8.810;2023-09-30T12:52:38;23.50;90.80
24232;DHT22;12364;47.810;8.810;2023-09-30T12:55:05;23.50;90.70
24232;DHT22;12364;47.810;8.810;2023-09-30T12:57:33;23.50;90.90
24232;DHT22;12364;47.810;8.810;2023-09-30T13:00:00;23.50;90.20
24232;DHT22;12364;47.810;8.810;2023-09-30T13:02:27;23.50;90.30
24232;DHT22;12364;47.810;8.810;2023-09-30T13:04:54;23.50;90.80
24232;DHT22;12364;47.810;8.810;2023-09-30T13:07:21;23.50;90.20
24232;DHT22;12364;47.810;8.810;2023-09-30T13:09:48;23.50;90.00
24232;DHT22;12364;47.810;8.810;2023-09-30T13:12:15;23.60;90.70
24232;DHT22;12364;47.810;8.810;2023-09-30T13:14:43;23.50;91.00
24232;DHT22;12364;47.810;8.810;2023-09-30T13:17:10;23.60;89.90
24232;DHT22;12364;47.810;8.810;2023-09-30T13:19:41;23.50;90.20
24232;DHT22;12364;47.810;8.810;2023-09-30T13:22:08;23.60;90.50
24232;DHT22;12364;47.810;8.810;2023-09-30T13:24:45;23.50;90.40
24232;DHT22;12364;47.810;8.810;2023-09-30T13:27:12;23.50;90.10
24232;DHT22;12364;47.810;8.810;2023-09-30T13:29:42;23.50;90.00
24232;DHT22;12364;47.810;8.810;2023-09-30T13:32:10;23.50;89.20
24232;DHT22;12364;47.810;8.810;2023-09-30T13:34:37;23.50;90.10
24232;DHT22;12364;47.810;8.810;2023-09-30T13:37:05;23.50;90.50
24232;DHT22;12364;47.810;8.810;2023-09-30T13:39:32;23.50;89.60
24232;DHT22;12364;47.810;8.810;2023-09-30T13:42:00;23.50;89.10
24232;DHT22;12364;47.810;8.810;2023-09-30T13:44:27;23.50;89.00
24232;DHT22;12364;47.810;8.810;2023-09-30T13:46:54;23.50;88.50
24232;DHT22;12364;47.810;8.810;2023-09-30T13:49:21;23.50;90.30
24232;DHT22;12364;47.810;8.810;2023-09-30T13:51:48;23.50;90.30
24232;DHT22;12364;47.810;8.810;2023-09-30T13:54:15;23.50;89.70
24232;DHT22;12364;47.810;8.810;2023-09-30T13:56:42;23.50;89.80
24232;DHT22;12364;47.810;8.810;2023-09-30T13:59:11;23.50;90.00
24232;DHT22;12364;47.810;8.810;2023-09-30T14:01:38;23.60;90.10
24232;DHT22;12364;47.810;8.810;2023-09-30T14:04:08;23.60;90.50
24232;DHT22;12364;47.810;8.810;2023-09-30T14:06:35;23.60;90.20
24232;DHT22;12364;47.810;8.810;2023-09-30T14:09:03;23.50;89.60
24232;DHT22;12364;47.810;8.810;2023-09-30T14:11:31;23.50;89.60
24232;DHT22;12364;47.810;8.810;2023-09-30T14:13:58;23.50;89.80
24232;DHT22;12364;47.810;8.810;2023-09-30T14:16:25;23.60;90.00
24232;DHT22;12364;47.810;8.810;2023-09-30T14:18:52;23.60;89.70
24232;DHT22;12364;47.810;8.810;2023-09-30T14:21:19;23.60;89.40
24232;DHT22;12364;47.810;8.810;2023-09-30T14:23:46;23.70;90.00
24232;DHT22;12364;47.810;8.810;2023-09-30T14:26:13;23.60;89.40
24232;DHT22;12364;47.810;8.810;2023-09-30T14:28:40;23.70;90.10
24232;DHT22;12364;47.810;8.810;2023-09-30T14:31:07;23.70;89.80
24232;DHT22;12364;47.810;8.810;2023-09-30T14:33:34;23.70;90.00
24232;DHT22;12364;47.810;8.810;2023-09-30T14:36:02;23.70;90.00
24232;DHT22;12364;47.810;8.810;2023-09-30T14:38:32;23.70;90.10
24232;DHT22;12364;47.810;8.810;2023-09-30T14:41:00;23.70;90.10
24232;DHT22;12364;47.810;8.810;2023-09-30T14:43:27;23.70;90.20
24232;DHT22;12364;47.810;8.810;2023-09-30T14:45:54;23.70;90.30
24232;DHT22;12364;47.810;8.810;2023-09-30T14:48:21;23.70;90.70
24232;DHT22;12364;47.810;8.810;2023-09-30T14:50:48;23.70;90.00
24232;DHT22;12364;47.810;8.810;2023-09-30T14:53:16;23.70;90.00
24232;DHT22;12364;47.810;8.810;2023-09-30T14:55:43;23.70;90.30
24232;DHT22;12364;47.810;8.810;2023-09-30T14:58:10;23.70;90.10
24232;DHT22;12364;47.810;8.810;2023-09-30T15:00:38;23.70;90.10
24232;DHT22;12364;47.810;8.810;2023-09-30T15:03:06;23.70;90.10
24232;DHT22;12364;47.810;8.810;2023-09-30T15:05:34;23.70;89.20
24232;DHT22;12364;47.810;8.810;2023-09-30T15:08:01;23.70;89.10
24232;DHT22;12364;47.810;8.810;2023-09-30T15:10:30;23.70;88.70
24232;DHT22;12364;47.810;8.810;2023-09-30T15:13:00;23.70;90.50
24232;DHT22;12364;47.810;8.810;2023-09-30T15:15:27;23.70;90.00
24232;DHT22;12364;47.810;8.810;2023-09-30T15:17:54;23.70;89.80
24232;DHT22;12364;47.810;8.810;2023-09-30T15:20:21;23.70;89.80
24232;DHT22;12364;47.810;8.810;2023-09-30T15:22:48;23.70;90.00
24232;DHT22;12364;47.810;8.810;2023-09-30T15:25:15;23.70;90.10
24232;DHT22;12364;47.810;8.810;2023-09-30T15:27:45;23.70;89.70
24232;DHT22;12364;47.810;8.810;2023-09-30T15:30:12;23.70;89.70
24232;DHT22;12364;47.810;8.810;2023-09-30T15:32:40;23.70;89.50
24232;DHT22;12364;47.810;8.810;2023-09-30T15:35:10;23.70;89.90
24232;DHT22;12364;47.810;8.810;2023-09-30T15:37:37;23.70;90.20
24232;DHT22;12364;47.810;8.810;2023-09-30T15:40:04;23.70;90.20
24232;DHT22;12364;47.810;8.810;2023-09-30T15:42:33;23.70;90.20
24232;DHT22;12364;47.810;8.810;2023-09-30T15:45:00;23.70;90.20
24232;DHT22;12364;47.810;8.810;2023-09-30T15:47:27;23.70;90.00
24232;DHT22;12364;47.810;8.810;2023-09-30T15:49:54;23.70;90.60
24232;DHT22;12364;47.810;8.810;2023-09-30T15:52:21;23.70;90.80
24232;DHT22;12364;47.810;8.810;2023-09-30T15:54:48;23.70;91.00
24232;DHT22;12364;47.810;8.810;2023-09-30T15:57:17;23.70;91.10
24232;DHT22;12364;47.810;8.810;2023-09-30T15:59:44;23.70;91.30
24232;DHT22;12364;47.810;8.810;2023-09-30T16:02:11;23.70;91.40
24232;DHT22;12364;47.810;8.810;2023-09-30T16:04:38;23.70;91.60
24232;DHT22;12364;47.810;8.810;2023-09-30T16:07:05;23.70;91.80
24232;DHT22;12364;47.810;8.810;2023-09-30T16:09:32;23.60;92.00
24232;DHT22;12364;47.810;8.810;2023-09-30T16:12:02;23.60;92.10
24232;DHT22;12364;47.810;8.810;2023-09-30T16:14:30;23.60;92.20
24232;DHT22;12364;47.810;8.810;2023-09-30T16:16:57;23.60;91.90
24232;DHT22;12364;47.810;8.810;2023-09-30T16:19:26;23.60;92.00
24232;DHT22;12364;47.810;8.810;2023-09-30T16:21:54;23.60;92.10
24232;DHT22;12364;47.810;8.810;2023-09-30T16:24:21;23.50;92.00
24232;DHT22;12364;47.810;8.810;2023-09-30T16:26:48;23.40;91.80
24232;DHT22;12364;47.810;8.810;2023-09-30T16:29:15;23.40;91.90
24232;DHT22;12364;47.810;8.810;2023-09-30T16:31:42;23.40;91.70
24232;DHT22;12364;47.810;8.810;2023-09-30T16:34:10;23.40;91.70
24232;DHT22;12364;47.810;8.810;2023-09-30T16:36:37;23.30;91.60
24232;DHT22;12364;47.810;8.810;2023-09-30T16:39:06;23.30;91.20
24232;DHT22;12364;47.810;8.810;2023-09-30T16:41:34;23.30;91.30
24232;DHT22;12364;47.810;8.810;2023-09-30T16:44:02;23.30;91.50
24232;DHT22;12364;47.810;8.810;2023-09-30T16:46:30;23.20;91.60
24232;DHT22;12364;47.810;8.810;2023-09-30T16:48:57;23.20;91.60
24232;DHT22;12364;47.810;8.810;2023-09-30T16:51:24;23.20;91.90
24232;DHT22;12364;47.810;8.810;2023-09-30T16:53:51;23.20;91.90
24232;DHT22;12364;47.810;8.810;2023-09-30T16:56:18;23.10;91.80
24232;DHT22;12364;47.810;8.810;2023-09-30T16:58:45;23.00;91.90
24232;DHT22;12364;47.810;8.810;2023-09-30T17:01:13;23.00;91.90
24232;DHT22;12364;47.810;8.810;2023-09-30T17:03:40;23.00;91.90
24232;DHT22;12364;47.810;8.810;2023-09-30T17:06:08;22.90;91.80
24232;DHT22;12364;47.810;8.810;2023-09-30T17:08:35;22.90;92.10
24232;DHT22;12364;47.810;8.810;2023-09-30T17:11:02;22.90;92.10
24232;DHT22;12364;47.810;8.810;2023-09-30T17:13:30;22.90;92.20
24232;DHT22;12364;47.810;8.810;2023-09-30T17:15:57;22.80;92.30
24232;DHT22;12364;47.810;8.810;2023-09-30T17:18:24;22.80;92.10
24232;DHT22;12364;47.810;8.810;2023-09-30T17:20:52;22.80;92.20
24232;DHT22;12364;47.810;8.810;2023-09-30T17:23:20;22.70;92.50
24232;DHT22;12364;47.810;8.810;2023-09-30T17:25:47;22.70;92.30
24232;DHT22;12364;47.810;8.810;2023-09-30T17:28:14;22.60;92.50
24232;DHT22;12364;47.810;8.810;2023-09-30T17:30:41;22.60;92.50
24232;DHT22;12364;47.810;8.810;2023-09-30T17:33:09;22.60;92.50
24232;DHT22;12364;47.810;8.810;2023-09-30T17:35:39;22.60;92.40
24232;DHT22;12364;47.810;8.810;2023-09-30T17:38:07;22.50;92.40
24232;DHT22;12364;47.810;8.810;2023-09-30T17:40:34;22.50;92.40
24232;DHT22;12364;47.810;8.810;2023-09-30T17:43:01;22.40;92.30
24232;DHT22;12364;47.810;8.810;2023-09-30T17:45:29;22.40;92.10
24232;DHT22;12364;47.810;8.810;2023-09-30T17:47:55;22.30;92.20
24232;DHT22;12364;47.810;8.810;2023-09-30T17:50:23;22.30;92.20
24232;DHT22;12364;47.810;8.810;2023-09-30T17:52:50;22.30;92.20
24232;DHT22;12364;47.810;8.810;2023-09-30T17:55:17;22.20;92.20
24232;DHT22;12364;47.810;8.810;2023-09-30T17:57:44;22.20;92.20
24232;DHT22;12364;47.810;8.810;2023-09-30T18:00:11;22.20;92.20
24232;DHT22;12364;47.810;8.810;2023-09-30T18:02:38;22.10;92.30
24232;DHT22;12364;47.810;8.810;2023-09-30T18:05:07;22.10;92.60
24232;DHT22;12364;47.810;8.810;2023-09-30T18:07:34;22.10;93.10
24232;DHT22;12364;47.810;8.810;2023-09-30T18:10:01;22.00;93.10
24232;DHT22;12364;47.810;8.810;2023-09-30T18:12:29;22.00;93.20
24232;DHT22;12364;47.810;8.810;2023-09-30T18:14:56;21.90;93.40
24232;DHT22;12364;47.810;8.810;2023-09-30T18:17:23;21.90;93.30
24232;DHT22;12364;47.810;8.810;2023-09-30T18:19:50;21.90;93.20
24232;DHT22;12364;47.810;8.810;2023-09-30T18:22:17;21.80;92.90
24232;DHT22;12364;47.810;8.810;2023-09-30T18:24:44;21.80;93.00
24232;DHT22;12364;47.810;8.810;2023-09-30T18:27:11;21.80;92.90
24232;DHT22;12364;47.810;8.810;2023-09-30T18:29:38;21.80;92.70
24232;DHT22;12364;47.810;8.810;2023-09-30T18:32:07;21.80;92.80
24232;DHT22;12364;47.810;8.810;2023-09-30T18:34:34;21.80;92.80
24232;DHT22;12364;47.810;8.810;2023-09-30T18:37:01;21.80;92.70
24232;DHT22;12364;47.810;8.810;2023-09-30T18:39:28;21.80;93.10
24232;DHT22;12364;47.810;8.810;2023-09-30T18:41:55;21.80;93.20
24232;DHT22;12364;47.810;8.810;2023-09-30T18:44:22;21.70;93.10
24232;DHT22;12364;47.810;8.810;2023-09-30T18:46:49;21.70;93.10
24232;DHT22;12364;47.810;8.810;2023-09-30T18:49:18;21.70;93.10
24232;DHT22;12364;47.810;8.810;2023-09-30T18:51:45;21.60;93.20
24232;DHT22;12364;47.810;8.810;2023-09-30T18:54:12;21.60;93.30
24232;DHT22;12364;47.810;8.810;2023-09-30T18:56:39;21.60;93.30
24232;DHT22;12364;47.810;8.810;2023-09-30T18:59:07;21.70;93.50
24232;DHT22;12364;47.810;8.810;2023-09-30T19:01:35;21.50;93.40
24232;DHT22;12364;47.810;8.810;2023-09-30T19:04:04;21.50;93.30
24232;DHT22;12364;47.810;8.810;2023-09-30T19:06:31;21.40;93.40
24232;DHT22;12364;47.810;8.810;2023-09-30T19:08:59;21.40;93.50
24232;DHT22;12364;47.810;8.810;2023-09-30T19:11:26;21.40;93.50
24232;DHT22;12364;47.810;8.810;2023-09-30T19:13:53;21.30;93.50
24232;DHT22;12364;47.810;8.810;2023-09-30T19:16:21;21.30;93.60
24232;DHT22;12364;47.810;8.810;2023-09-30T19:18:48;21.30;93.60
24232;DHT22;12364;47.810;8.810;2023-09-30T19:21:15;21.30;93.70
24232;DHT22;12364;47.810;8.810;2023-09-30T19:23:42;21.30;93.70
24232;DHT22;12364;47.810;8.810;2023-09-30T19:26:12;21.30;93.70
24232;DHT22;12364;47.810;8.810;2023-09-30T19:28:42;21.20;93.60
24232;DHT22;12364;47.810;8.810;2023-09-30T19:31:12;21.20;93.60
24232;DHT22;12364;47.810;8.810;2023-09-30T19:33:39;21.20;93.80
24232;DHT22;12364;47.810;8.810;2023-09-30T19:36:08;21.20;93.60
24232;DHT22;12364;47.810;8.810;2023-09-30T19:38:36;21.20;93.50
24232;DHT22;12364;47.810;8.810;2023-09-30T19:41:04;21.20;93.30
24232;DHT22;12364;47.810;8.810;2023-09-30T19:43:35;21.20;93.20
24232;DHT22;12364;47.810;8.810;2023-09-30T19:46:02;21.30;93.20
24232;DHT22;12364;47.810;8.810;2023-09-30T19:48:30;21.30;93.20
24232;DHT22;12364;47.810;8.810;2023-09-30T19:50:57;21.30;93.10
24232;DHT22;12364;47.810;8.810;2023-09-30T19:53:24;21.30;93.00
24232;DHT22;12364;47.810;8.810;2023-09-30T19:55:51;21.30;92.90
24232;DHT22;12364;47.810;8.810;2023-09-30T19:58:18;21.30;92.80
24232;DHT22;12364;47.810;8.810;2023-09-30T20:00:46;21.30;92.80
24232;DHT22;12364;47.810;8.810;2023-09-30T20:03:15;21.30;92.70
24232;DHT22;12364;47.810;8.810;2023-09-30T20:05:42;21.30;92.70
24232;DHT22;12364;47.810;8.810;2023-09-30T20:08:09;21.20;92.50
24232;DHT22;12364;47.810;8.810;2023-09-30T20:10:36;21.20;92.60
24232;DHT22;12364;47.810;8.810;2023-09-30T20:13:03;21.10;93.10
24232;DHT22;12364;47.810;8.810;2023-09-30T20:15:35;21.10;92.80
24232;DHT22;12364;47.810;8.810;2023-09-30T20:18:02;21.10;92.70
24232;DHT22;12364;47.810;8.810;2023-09-30T20:20:30;21.00;92.70
24232;DHT22;12364;47.810;8.810;2023-09-30T20:22:56;21.00;92.70
24232;DHT22;12364;47.810;8.810;2023-09-30T20:25:24;21.00;92.70
24232;DHT22;12364;47.810;8.810;2023-09-30T20:27:52;21.00;92.60